Time,TemperatureF,DewpointF,PressureIn,WindDirection,WindDirectionDegrees,WindSpeedMPH,WindSpeedGustMPH,Humidity,HourlyPrecipIn,Conditions,Clouds,dailyrainin,SoftwareType,DateUTC
2013-03-29 00:12:00,41.8,12.0,29.87,NNE,27,1.0,-999.0,29,-99.99,,,0.00,weatherlink.com 1.10,2013-03-29 06:12:00,
2013-03-29 00:28:00,41.5,12.0,29.86,NNE,27,3.0,-999.0,30,-99.99,,,0.00,weatherlink.com 1.10,2013-03-29 06:28:00,
2013-03-29 00:58:00,42.6,11.0,29.86,NNE,27,1.0,-999.0,28,-99.99,,,0.00,weatherlink.com 1.10,2013-03-29 06:58:00,
2013-03-29 01:13:00,41.6,12.0,29.86,NNE,27,0.0,-999.0,30,-99.99,,,0.00,weatherlink.com 1.10,2013-03-29 07:13:00,
2013-03-29 01:28:00,40.5,13.0,29.86,NNE,27,0.0,-999.0,32,-99.99,,,0.00,weatherlink.com 1.10,2013-03-29 07:28:00,
2013-03-29 01:43:00,39.8,13.0,29.88,NNE,27,2.0,-999.0,34,-99.99,,,0.00,weatherlink.com 1.10,2013-03-29 07:43:00,
2013-03-29 01:58:00,39.6,14.0,29.88,NNE,27,0.0,-999.0,35,-99.99,,,0.00,weatherlink.com 1.10,2013-03-29 07:58:00,
2013-03-29 02:13:00,39.9,13.0,29.88,NNE,27,2.0,-999.0,33,-99.99,,,0.00,weatherlink.com 1.10,2013-03-29 08:13:00,
2013-03-29 02:28:00,39.3,13.0,29.87,NNE,32,2.0,-999.0,34,-99.99,,,0.00,weatherlink.com 1.10,2013-03-29 08:28:00,
2013-03-29 02:43:00,38.5,13.0,29.88,NNE,32,0.0,-999.0,35,-99.99,,,0.00,weatherlink.com 1.10,2013-03-29 08:43:00,
2013-03-29 02:58:00,36.9,13.0,29.89,NNE,30,2.0,-999.0,38,-99.99,,,0.00,weatherlink.com 1.10,2013-03-29 08:58:00,
2013-03-29 03:14:00,35.8,14.0,29.90,NNE,30,4.0,-999.0,40,-99.99,,,0.00,weatherlink.com 1.10,2013-03-29 09:14:00,
2013-03-29 03:28:00,35.2,13.0,29.90,NNE,30,2.0,-999.0,40,-99.99,,,0.00,weatherlink.com 1.10,2013-03-29 09:28:00,
2013-03-29 03:43:00,34.9,14.0,29.91,NNE,30,4.0,-999.0,43,-99.99,,,0.00,weatherlink.com 1.10,2013-03-29 09:43:00,
2013-03-29 03:58:00,34.0,15.0,29.91,NNE,30,5.0,-999.0,45,-99.99,,,0.00,weatherlink.com 1.10,2013-03-29 09:58:00,
2013-03-29 04:13:00,34.9,14.0,29.91,NNE,30,3.0,-999.0,43,-99.99,,,0.00,weatherlink.com 1.10,2013-03-29 10:13:00,
2013-03-29 04:28:00,35.3,15.0,29.90,NNE,29,0.0,-999.0,43,-99.99,,,0.00,weatherlink.com 1.10,2013-03-29 10:28:00,
2013-03-29 04:43:00,36.0,15.0,29.90,NNE,27,3.0,-999.0,43,-99.99,,,0.00,weatherlink.com 1.10,2013-03-29 10:43:00,
2013-03-29 04:58:00,35.5,15.0,29.90,NNE,27,0.0,-999.0,44,-99.99,,,0.00,weatherlink.com 1.10,2013-03-29 10:58:00,
2013-03-29 05:13:00,35.8,16.0,29.90,NNE,27,0.0,-999.0,44,-99.99,,,0.00,weatherlink.com 1.10,2013-03-29 11:13:00,
2013-03-29 05:28:00,36.6,16.0,29.90,NNE,30,2.0,-999.0,43,-99.99,,,0.00,weatherlink.com 1.10,2013-03-29 11:28:00,
2013-03-29 05:43:00,37.5,15.0,29.91,NNE,30,3.0,-999.0,40,-99.99,,,0.00,weatherlink.com 1.10,2013-03-29 11:43:00,
2013-03-29 05:58:00,38.2,15.0,29.89,ENE,65,3.0,-999.0,39,-99.99,,,0.00,weatherlink.com 1.10,2013-03-29 11:58:00,
2013-03-29 06:14:00,38.9,14.0,29.90,NE,45,0.0,-999.0,37,-99.99,,,0.00,weatherlink.com 1.10,2013-03-29 12:14:00,
2013-03-29 06:29:00,38.2,15.0,29.92,NE,45,0.0,-999.0,39,-99.99,,,0.00,weatherlink.com 1.10,2013-03-29 12:29:00,
2013-03-29 06:45:00,37.8,15.0,29.93,NE,45,0.0,-999.0,39,-99.99,,,0.00,weatherlink.com 1.10,2013-03-29 12:45:00,
2013-03-29 06:58:00,35.9,15.0,29.93,NE,45,0.0,-999.0,42,-99.99,,,0.00,weatherlink.com 1.10,2013-03-29 12:58:00,
2013-03-29 07:14:00,34.9,15.0,29.94,NE,45,0.0,-999.0,45,-99.99,,,0.00,weatherlink.com 1.10,2013-03-29 13:14:00,
2013-03-29 07:29:00,35.6,16.0,30.00,NE,45,0.0,-999.0,45,-99.99,,,0.00,weatherlink.com 1.10,2013-03-29 13:29:00,
2013-03-29 07:45:00,36.5,17.0,29.99,NE,45,0.0,-999.0,45,-99.99,,,0.00,weatherlink.com 1.10,2013-03-29 13:45:00,
2013-03-29 08:00:00,38.8,16.0,29.98,NE,45,2.0,-999.0,40,-99.99,,,0.00,weatherlink.com 1.10,2013-03-29 14:00:00,
2013-03-29 08:14:00,40.3,17.0,29.98,NE,45,4.0,-999.0,39,-99.99,,,0.00,weatherlink.com 1.10,2013-03-29 14:14:00,
2013-03-29 08:29:00,41.9,18.0,30.02,NE,39,0.0,-999.0,39,-99.99,,,0.00,weatherlink.com 1.10,2013-03-29 14:29:00,
2013-03-29 08:44:00,43.9,20.0,30.01,NE,39,0.0,-999.0,38,-99.99,,,0.00,weatherlink.com 1.10,2013-03-29 14:44:00,
2013-03-29 09:00:00,47.6,21.0,30.00,NE,39,0.0,-999.0,35,-99.99,,,0.00,weatherlink.com 1.10,2013-03-29 15:00:00,
2013-03-29 09:15:00,49.8,19.0,29.98,NE,39,1.0,-999.0,29,-99.99,,,0.00,weatherlink.com 1.10,2013-03-29 15:15:00,
2013-03-29 09:30:00,51.9,19.0,29.99,NE,39,0.0,-999.0,27,-99.99,,,0.00,weatherlink.com 1.10,2013-03-29 15:30:00,
2013-03-29 09:46:00,53.9,20.0,29.98,NE,39,0.0,-999.0,26,-99.99,,,0.00,weatherlink.com 1.10,2013-03-29 15:46:00,
2013-03-29 10:01:00,55.7,20.0,29.97,SSW,197,0.0,-999.0,25,-99.99,,,0.00,weatherlink.com 1.10,2013-03-29 16:01:00,
2013-03-29 10:16:00,56.9,20.0,29.96,SSW,210,3.0,-999.0,24,-99.99,,,0.00,weatherlink.com 1.10,2013-03-29 16:16:00,
2013-03-29 10:31:00,58.0,20.0,29.96,SSW,212,3.0,-999.0,23,-99.99,,,0.00,weatherlink.com 1.10,2013-03-29 16:31:00,
2013-03-29 10:47:00,57.8,20.0,29.96,SSW,212,6.0,-999.0,23,-99.99,,,0.00,weatherlink.com 1.10,2013-03-29 16:47:00,
2013-03-29 11:02:00,59.2,20.0,29.95,SSW,212,0.0,-999.0,22,-99.99,,,0.00,weatherlink.com 1.10,2013-03-29 17:02:00,
2013-03-29 11:16:00,60.1,21.0,29.94,SW,224,3.0,-999.0,22,-99.99,,,0.00,weatherlink.com 1.10,2013-03-29 17:16:00,
2013-03-29 11:31:00,62.0,21.0,29.93,SW,220,0.0,-999.0,21,-99.99,,,0.00,weatherlink.com 1.10,2013-03-29 17:31:00,
2013-03-29 11:47:00,62.6,22.0,29.92,SSW,211,0.0,-999.0,21,-99.99,,,0.00,weatherlink.com 1.10,2013-03-29 17:47:00,
2013-03-29 12:03:00,63.2,21.0,29.92,SW,223,9.0,-999.0,20,-99.99,,,0.00,weatherlink.com 1.10,2013-03-29 18:03:00,
2013-03-29 12:16:00,63.9,22.0,29.91,SW,230,4.0,-999.0,20,-99.99,,,0.00,weatherlink.com 1.10,2013-03-29 18:16:00,
2013-03-29 12:32:00,64.0,22.0,29.91,SW,221,0.0,-999.0,20,-99.99,,,0.00,weatherlink.com 1.10,2013-03-29 18:32:00,
2013-03-29 12:47:00,64.7,23.0,29.89,West,274,7.0,-999.0,20,-99.99,,,0.00,weatherlink.com 1.10,2013-03-29 18:47:00,
2013-03-29 13:02:00,65.3,22.0,29.88,WSW,244,9.0,-999.0,19,-99.99,,,0.00,weatherlink.com 1.10,2013-03-29 19:02:00,
2013-03-29 13:17:00,67.4,22.0,29.88,SW,217,1.0,-999.0,18,-99.99,,,0.00,weatherlink.com 1.10,2013-03-29 19:17:00,
2013-03-29 13:32:00,66.9,23.0,29.88,WSW,252,14.0,-999.0,19,-99.99,,,0.00,weatherlink.com 1.10,2013-03-29 19:32:00,
2013-03-29 13:48:00,67.1,22.0,29.87,West,273,12.0,-999.0,18,-99.99,,,0.00,weatherlink.com 1.10,2013-03-29 19:48:00,
2013-03-29 14:03:00,67.4,22.0,29.86,West,262,11.0,-999.0,18,-99.99,,,0.00,weatherlink.com 1.10,2013-03-29 20:03:00,
2013-03-29 14:18:00,67.6,21.0,29.88,West,272,9.0,-999.0,17,-99.99,,,0.00,weatherlink.com 1.10,2013-03-29 20:18:00,
2013-03-29 14:34:00,68.1,22.0,29.87,West,263,5.0,-999.0,17,-99.99,,,0.00,weatherlink.com 1.10,2013-03-29 20:34:00,
2013-03-29 14:48:00,68.8,21.0,29.86,WSW,254,13.0,-999.0,16,-99.99,,,0.00,weatherlink.com 1.10,2013-03-29 20:48:00,
2013-03-29 15:04:00,68.9,21.0,29.85,WSW,241,9.0,-999.0,16,-99.99,,,0.00,weatherlink.com 1.10,2013-03-29 21:04:00,
2013-03-29 15:19:00,68.4,22.0,29.87,NW,311,9.0,-999.0,17,-99.99,,,0.00,weatherlink.com 1.10,2013-03-29 21:19:00,
2013-03-29 15:34:00,68.8,21.0,29.87,West,262,3.0,-999.0,16,-99.99,,,0.00,weatherlink.com 1.10,2013-03-29 21:34:00,
2013-03-29 15:50:00,69.8,20.0,29.86,West,274,7.0,-999.0,15,-99.99,,,0.00,weatherlink.com 1.10,2013-03-29 21:50:00,
2013-03-29 16:03:00,68.9,21.0,29.86,SSW,209,10.0,-999.0,16,-99.99,,,0.00,weatherlink.com 1.10,2013-03-29 22:03:00,
2013-03-29 16:18:00,68.9,19.0,29.85,West,266,9.0,-999.0,15,-99.99,,,0.00,weatherlink.com 1.10,2013-03-29 22:18:00,
2013-03-29 16:34:00,68.8,19.0,29.85,WSW,258,12.0,-999.0,15,-99.99,,,0.00,weatherlink.com 1.10,2013-03-29 22:34:00,
2013-03-29 16:49:00,68.8,18.0,29.86,WSW,253,5.0,-999.0,14,-99.99,,,0.00,weatherlink.com 1.10,2013-03-29 22:49:00,
2013-03-29 17:05:00,68.8,19.0,29.85,NW,311,7.0,-999.0,15,-99.99,,,0.00,weatherlink.com 1.10,2013-03-29 23:05:00,
2013-03-29 17:21:00,68.9,18.0,29.84,WNW,298,9.0,-999.0,14,-99.99,,,0.00,weatherlink.com 1.10,2013-03-29 23:21:00,
2013-03-29 17:34:00,68.4,19.0,29.84,NW,304,6.0,-999.0,15,-99.99,,,0.00,weatherlink.com 1.10,2013-03-29 23:34:00,
2013-03-29 18:06:00,67.9,17.0,29.84,WSW,238,9.0,-999.0,14,-99.99,,,0.00,weatherlink.com 1.10,2013-03-30 00:06:00,
2013-03-29 18:21:00,67.4,18.0,29.86,West,262,6.0,-999.0,15,-99.99,,,0.00,weatherlink.com 1.10,2013-03-30 00:21:00,
2013-03-29 18:36:00,67.1,18.0,29.86,West,275,6.0,-999.0,15,-99.99,,,0.00,weatherlink.com 1.10,2013-03-30 00:36:00,
2013-03-29 18:50:00,66.3,17.0,29.86,West,267,8.0,-999.0,15,-99.99,,,0.00,weatherlink.com 1.10,2013-03-30 00:50:00,
2013-03-29 19:05:00,65.6,18.0,29.87,WNW,282,6.0,-999.0,16,-99.99,,,0.00,weatherlink.com 1.10,2013-03-30 01:05:00,
2013-03-29 19:50:00,61.2,17.0,29.88,West,280,1.0,-999.0,18,-99.99,,,0.00,weatherlink.com 1.10,2013-03-30 01:50:00,
2013-03-29 20:05:00,59.8,16.0,29.90,West,280,0.0,-999.0,18,-99.99,,,0.00,weatherlink.com 1.10,2013-03-30 02:05:00,
2013-03-29 20:20:00,55.3,16.0,29.87,West,281,0.0,-999.0,21,-99.99,,,0.00,weatherlink.com 1.10,2013-03-30 02:20:00,
2013-03-29 20:35:00,53.9,17.0,29.89,West,281,0.0,-999.0,23,-99.99,,,0.00,weatherlink.com 1.10,2013-03-30 02:35:00,
2013-03-29 20:50:00,53.5,17.0,29.89,West,281,0.0,-999.0,24,-99.99,,,0.00,weatherlink.com 1.10,2013-03-30 02:50:00,
2013-03-29 21:05:00,50.8,18.0,29.92,West,281,0.0,-999.0,27,-99.99,,,0.00,weatherlink.com 1.10,2013-03-30 03:05:00,
2013-03-29 21:20:00,49.1,17.0,29.89,West,281,0.0,-999.0,28,-99.99,,,0.00,weatherlink.com 1.10,2013-03-30 03:20:00,
2013-03-29 21:35:00,46.0,17.0,29.91,West,281,2.0,-999.0,31,-99.99,,,0.00,weatherlink.com 1.10,2013-03-30 03:35:00,
2013-03-29 21:50:00,44.3,18.0,29.92,West,281,3.0,-999.0,35,-99.99,,,0.00,weatherlink.com 1.10,2013-03-30 03:50:00,
2013-03-29 22:05:00,43.9,18.0,29.93,West,281,3.0,-999.0,36,-99.99,,,0.00,weatherlink.com 1.10,2013-03-30 04:05:00,
2013-03-29 22:20:00,42.8,19.0,29.92,West,281,1.0,-999.0,39,-99.99,,,0.00,weatherlink.com 1.10,2013-03-30 04:20:00,
2013-03-29 22:35:00,41.9,19.0,29.92,West,281,3.0,-999.0,40,-99.99,,,0.00,weatherlink.com 1.10,2013-03-30 04:35:00,
2013-03-29 22:50:00,40.8,19.0,29.93,West,281,2.0,-999.0,42,-99.99,,,0.00,weatherlink.com 1.10,2013-03-30 04:50:00,
2013-03-29 23:05:00,40.3,19.0,29.94,West,281,3.0,-999.0,43,-99.99,,,0.00,weatherlink.com 1.10,2013-03-30 05:05:00,
2013-03-29 23:20:00,40.2,20.0,29.93,West,281,3.0,-999.0,44,-99.99,,,0.00,weatherlink.com 1.10,2013-03-30 05:20:00,
2013-03-29 23:35:00,39.5,19.0,29.93,West,281,4.0,-999.0,43,-99.99,,,0.00,weatherlink.com 1.10,2013-03-30 05:35:00,
2013-03-29 23:50:00,39.6,19.0,29.93,WNW,283,4.0,-999.0,43,-99.99,,,0.00,weatherlink.com 1.10,2013-03-30 05:50:00,